Good Partner — WDF4773 — position and weather

sailwx.info

Track history (hours):
 
Tides and Currents Weather Stations Pressure Air Temp Water Temp Dewpoint Dewpoint Depression Visibility Wind Speed Wind Dir Waves Ship Positions

Good Partner

Owner: baumgart Mr, hank, bellingham, WA. More information available from US FCC via Universal Licensing System.

Last reported at 2018-Feb-04 22:57 UTC. Time now 2018-Feb-20 17:29 UTC.
Position N 54°26' W 130°32'.
Warning: this ship's position is 15 days out of date.

Length 20 m.

Type: Fishing. MMSI: 367455690.

Date/timePositionNaut miles runAvg speedWind from/ knotsBaromVisibWave heightAir tempDewpointWater temp
2018-Feb-04 22:57N 54°26' W 130°32'3 7.0
2018-Feb-04 22:30N 54°22' W 130°33'4 7.0
2018-Feb-04 22:00N 54°19' W 130°34'1 2.3
2018-Feb-04 21:30N 54°18' W 130°34'2 3.8
2018-Feb-04 21:01N 54°16' W 130°33'9 8.5
2018-Feb-04 20:00N 54°09' W 130°25'5 9.0
2018-Feb-04 19:31N 54°06' W 130°20'5 9.1
2018-Feb-04 19:00N 54°02' W 130°14'5 9.1
2018-Feb-04 18:30N 53°58' W 130°12'4 8.2
2018-Feb-04 18:00N 53°54' W 130°08'162 7.3
2018-Feb-03 19:49N 51°34' W 127°53'22 9.1
2018-Feb-03 17:26N 51°13' W 127°51'4 9.3
2018-Feb-03 17:00N 51°09' W 127°49'9 8.8
2018-Feb-03 15:59N 51°03' W 127°39'4 9.3
2018-Feb-03 15:30N 50°60' W 127°34'5 9.3
2018-Feb-03 15:00N 50°57' W 127°28'5 9.9
2018-Feb-03 14:30N 50°54' W 127°22'5 9.3
2018-Feb-03 14:00N 50°52' W 127°15'4 8.8
2018-Feb-03 13:30N 50°49' W 127°09'5 8.8
2018-Feb-03 12:58N 50°47' W 127°03'6 8.6
2018-Feb-03 12:18N 50°43' W 126°56'4 8.5
2018-Feb-03 11:50N 50°41' W 126°51'4 7.9
2018-Feb-03 11:20N 50°38' W 126°47'3 7.9
2018-Feb-03 10:56N 50°36' W 126°43'3 5.0
2018-Feb-03 10:25N 50°33' W 126°41'5 7.4
2018-Feb-03 09:45N 50°31' W 126°35'3 8.4
2018-Feb-03 09:24N 50°30' W 126°30'41 9.7
2018-Feb-03 05:09N 50°20' W 125°28'2 9.5
2018-Feb-03 04:55N 50°19' W 125°25'910.1
2018-Feb-03 04:00N 50°10' W 125°21'510.8
2018-Feb-03 03:30N 50°05' W 125°17'13 8.8
2018-Feb-03 02:00N 49°55' W 125°04'4 8.7
2018-Feb-03 01:30N 49°52' W 124°59'4 8.7
2018-Feb-03 01:00N 49°49' W 124°55'4 8.3
2018-Feb-03 00:30N 49°46' W 124°50'4 8.4
2018-Feb-03 00:00N 49°42' W 124°46'4 8.3
2018-Feb-02 23:30N 49°39' W 124°42'4 8.0
2018-Feb-02 22:59N 49°36' W 124°38'4 8.3
2018-Feb-02 22:30N 49°33' W 124°33'5 8.8
2018-Feb-02 21:59N 49°30' W 124°29'4 8.5
2018-Feb-02 21:29N 49°27' W 124°23'4 8.6
2018-Feb-02 21:00N 49°25' W 124°18'4 8.8
2018-Feb-02 20:31N 49°23' W 124°12'4 8.6
2018-Feb-02 20:00N 49°21' W 124°06'9 8.7
2018-Feb-02 19:00N 49°17' W 123°55'4 8.5
2018-Feb-02 18:30N 49°15' W 123°49'4 8.6
2018-Feb-02 18:00N 49°13' W 123°43'4 8.7
2018-Feb-02 17:29N 49°10' W 123°38'4 8.4
2018-Feb-02 17:00N 49°07' W 123°33'4 8.9
2018-Feb-02 16:30N 49°04' W 123°29'8 8.4
2018-Feb-02 15:30N 48°58' W 123°20'8 8.4
2018-Feb-02 14:30N 48°53' W 123°10'4 8.0
2018-Feb-02 14:00N 48°51' W 123°04'4 7.1
2018-Feb-02 13:24N 48°47' W 123°01'410.7
2018-Feb-02 13:00N 48°44' W 123°06'510.5
2018-Feb-02 12:30N 48°42' W 123°13'5 9.4
2018-Feb-02 12:00N 48°37' W 123°13'611.2
2018-Feb-02 11:30N 48°32' W 123°12'4 8.6
2018-Feb-02 11:00N 48°28' W 123°12'4 9.2
2018-Feb-02 10:30N 48°23' W 123°14'35 7.3
2018-Feb-02 05:46N 48°15' W 124°04'2 6.1
2018-Feb-02 05:27N 48°15' W 124°07'3 5.9
2018-Feb-02 05:01N 48°16' W 124°11'3 5.7
2018-Feb-02 04:30N 48°17' W 124°15'3 5.6
2018-Feb-02 04:00N 48°18' W 124°18'3 5.5
2018-Feb-02 03:30N 48°20' W 124°22'3 5.9
2018-Feb-02 02:59N 48°21' W 124°26'3 6.0
2018-Feb-02 02:30N 48°22' W 124°30'3 6.2
2018-Feb-02 02:00N 48°23' W 124°35'3 6.1
2018-Feb-02 01:30N 48°24' W 124°39'3 6.5
2018-Feb-02 01:00N 48°23' W 124°44'4 8.2
2018-Feb-02 00:30N 48°20' W 124°48'5 9.3
2018-Feb-01 23:59N 48°15' W 124°50'80 8.5
2018-Feb-01 14:40N 46°58' W 124°26'9 7.6
2018-Feb-01 13:30N 46°49' W 124°25'4 8.0
2018-Feb-01 13:00N 46°45' W 124°23'4 7.9
2018-Feb-01 12:30N 46°41' W 124°22'4 8.1
2018-Feb-01 12:00N 46°37' W 124°20'8 8.4
2018-Feb-01 11:00N 46°29' W 124°17'5 9.0
2018-Feb-01 10:30N 46°25' W 124°17'6 9.3
2018-Feb-01 09:54N 46°19' W 124°16'3 8.3
2018-Feb-01 09:30N 46°17' W 124°12'3 6.3
2018-Feb-01 09:00N 46°15' W 124°09'3 6.0
2018-Feb-01 08:30N 46°15' W 124°04'5 5.2
2018-Feb-01 07:30N 46°16' W 123°57'0 0.0
2018-Feb-01 07:00N 46°16' W 123°57'0 0.0
2018-Feb-01 06:30N 46°16' W 123°57'0 0.0
2018-Feb-01 06:00N 46°16' W 123°57'0 0.0
2018-Feb-01 05:19N 46°16' W 123°57'0 0.0
2018-Feb-01 04:51N 46°16' W 123°57'0 0.0
2018-Feb-01 04:30N 46°16' W 123°57'0 0.0
2018-Feb-01 04:00N 46°16' W 123°57'0 0.0
2018-Feb-01 02:49N 46°16' W 123°57'0 0.0
2018-Feb-01 02:30N 46°16' W 123°57'0 0.0
2018-Jan-30 21:30N 46°16' W 123°57'0 0.0
2018-Jan-29 00:01N 46°16' W 123°57'0 0.0
2018-Jan-29 00:01N 46°16' W 123°57'0 0.0
2018-Jan-28 23:15N 46°16' W 123°57'0 0.0
2018-Jan-28 23:00N 46°16' W 123°57'0 0.0
2018-Jan-28 22:30N 46°16' W 123°57'0 0.0
2018-Jan-28 21:59N 46°16' W 123°57'0 0.0
2018-Jan-28 21:21N 46°16' W 123°57'0 0.0
2018-Jan-28 21:00N 46°16' W 123°57'0 0.0
2018-Jan-28 20:30N 46°16' W 123°57'0 0.0
2018-Jan-28 20:01N 46°16' W 123°57'  
Track history (hours):
 
Tides and Currents Weather Stations Pressure Air Temp Water Temp Dewpoint Dewpoint Depression Visibility Wind Speed Wind Dir Waves Ship Positions

Good Partner

Owner: baumgart Mr, hank, bellingham, WA. More information available from US FCC via Universal Licensing System.

Last reported at 2018-Feb-04 22:57 UTC. Time now 2018-Feb-20 17:29 UTC.
Position N 54°26' W 130°32'.
Warning: this ship's position is 15 days out of date.

Length 20 m.

Type: Fishing. MMSI: 367455690.

Date/timePositionNaut miles runAvg speedWind from/ knotsBaromVisibWave heightAir tempDewpointWater temp
2018-Feb-04 22:57N 54°26' W 130°32'3 7.0
2018-Feb-04 22:30N 54°22' W 130°33'4 7.0
2018-Feb-04 22:00N 54°19' W 130°34'1 2.3
2018-Feb-04 21:30N 54°18' W 130°34'2 3.8
2018-Feb-04 21:01N 54°16' W 130°33'9 8.5
2018-Feb-04 20:00N 54°09' W 130°25'5 9.0
2018-Feb-04 19:31N 54°06' W 130°20'5 9.1
2018-Feb-04 19:00N 54°02' W 130°14'5 9.1
2018-Feb-04 18:30N 53°58' W 130°12'4 8.2
2018-Feb-04 18:00N 53°54' W 130°08'162 7.3
2018-Feb-03 19:49N 51°34' W 127°53'22 9.1
2018-Feb-03 17:26N 51°13' W 127°51'4 9.3
2018-Feb-03 17:00N 51°09' W 127°49'9 8.8
2018-Feb-03 15:59N 51°03' W 127°39'4 9.3
2018-Feb-03 15:30N 50°60' W 127°34'5 9.3
2018-Feb-03 15:00N 50°57' W 127°28'5 9.9
2018-Feb-03 14:30N 50°54' W 127°22'5 9.3
2018-Feb-03 14:00N 50°52' W 127°15'4 8.8
2018-Feb-03 13:30N 50°49' W 127°09'5 8.8
2018-Feb-03 12:58N 50°47' W 127°03'6 8.6
2018-Feb-03 12:18N 50°43' W 126°56'4 8.5
2018-Feb-03 11:50N 50°41' W 126°51'4 7.9
2018-Feb-03 11:20N 50°38' W 126°47'3 7.9
2018-Feb-03 10:56N 50°36' W 126°43'3 5.0
2018-Feb-03 10:25N 50°33' W 126°41'5 7.4
2018-Feb-03 09:45N 50°31' W 126°35'3 8.4
2018-Feb-03 09:24N 50°30' W 126°30'41 9.7
2018-Feb-03 05:09N 50°20' W 125°28'2 9.5
2018-Feb-03 04:55N 50°19' W 125°25'910.1
2018-Feb-03 04:00N 50°10' W 125°21'510.8
2018-Feb-03 03:30N 50°05' W 125°17'13 8.8
2018-Feb-03 02:00N 49°55' W 125°04'4 8.7
2018-Feb-03 01:30N 49°52' W 124°59'4 8.7
2018-Feb-03 01:00N 49°49' W 124°55'4 8.3
2018-Feb-03 00:30N 49°46' W 124°50'4 8.4
2018-Feb-03 00:00N 49°42' W 124°46'4 8.3
2018-Feb-02 23:30N 49°39' W 124°42'4 8.0
2018-Feb-02 22:59N 49°36' W 124°38'4 8.3
2018-Feb-02 22:30N 49°33' W 124°33'5 8.8
2018-Feb-02 21:59N 49°30' W 124°29'4 8.5
2018-Feb-02 21:29N 49°27' W 124°23'4 8.6
2018-Feb-02 21:00N 49°25' W 124°18'4 8.8
2018-Feb-02 20:31N 49°23' W 124°12'4 8.6
2018-Feb-02 20:00N 49°21' W 124°06'9 8.7
2018-Feb-02 19:00N 49°17' W 123°55'4 8.5
2018-Feb-02 18:30N 49°15' W 123°49'4 8.6
2018-Feb-02 18:00N 49°13' W 123°43'4 8.7
2018-Feb-02 17:29N 49°10' W 123°38'4 8.4
2018-Feb-02 17:00N 49°07' W 123°33'4 8.9
2018-Feb-02 16:30N 49°04' W 123°29'8 8.4
2018-Feb-02 15:30N 48°58' W 123°20'8 8.4
2018-Feb-02 14:30N 48°53' W 123°10'4 8.0
2018-Feb-02 14:00N 48°51' W 123°04'4 7.1
2018-Feb-02 13:24N 48°47' W 123°01'410.7
2018-Feb-02 13:00N 48°44' W 123°06'510.5
2018-Feb-02 12:30N 48°42' W 123°13'5 9.4
2018-Feb-02 12:00N 48°37' W 123°13'611.2
2018-Feb-02 11:30N 48°32' W 123°12'4 8.6
2018-Feb-02 11:00N 48°28' W 123°12'4 9.2
2018-Feb-02 10:30N 48°23' W 123°14'35 7.3
2018-Feb-02 05:46N 48°15' W 124°04'2 6.1
2018-Feb-02 05:27N 48°15' W 124°07'3 5.9
2018-Feb-02 05:01N 48°16' W 124°11'3 5.7
2018-Feb-02 04:30N 48°17' W 124°15'3 5.6
2018-Feb-02 04:00N 48°18' W 124°18'3 5.5
2018-Feb-02 03:30N 48°20' W 124°22'3 5.9
2018-Feb-02 02:59N 48°21' W 124°26'3 6.0
2018-Feb-02 02:30N 48°22' W 124°30'3 6.2
2018-Feb-02 02:00N 48°23' W 124°35'3 6.1
2018-Feb-02 01:30N 48°24' W 124°39'3 6.5
2018-Feb-02 01:00N 48°23' W 124°44'4 8.2
2018-Feb-02 00:30N 48°20' W 124°48'5 9.3
2018-Feb-01 23:59N 48°15' W 124°50'80 8.5
2018-Feb-01 14:40N 46°58' W 124°26'9 7.6
2018-Feb-01 13:30N 46°49' W 124°25'4 8.0
2018-Feb-01 13:00N 46°45' W 124°23'4 7.9
2018-Feb-01 12:30N 46°41' W 124°22'4 8.1
2018-Feb-01 12:00N 46°37' W 124°20'8 8.4
2018-Feb-01 11:00N 46°29' W 124°17'5 9.0
2018-Feb-01 10:30N 46°25' W 124°17'6 9.3
2018-Feb-01 09:54N 46°19' W 124°16'3 8.3
2018-Feb-01 09:30N 46°17' W 124°12'3 6.3
2018-Feb-01 09:00N 46°15' W 124°09'3 6.0
2018-Feb-01 08:30N 46°15' W 124°04'5 5.2
2018-Feb-01 07:30N 46°16' W 123°57'0 0.0
2018-Feb-01 07:00N 46°16' W 123°57'0 0.0
2018-Feb-01 06:30N 46°16' W 123°57'0 0.0
2018-Feb-01 06:00N 46°16' W 123°57'0 0.0
2018-Feb-01 05:19N 46°16' W 123°57'0 0.0
2018-Feb-01 04:51N 46°16' W 123°57'0 0.0
2018-Feb-01 04:30N 46°16' W 123°57'0 0.0
2018-Feb-01 04:00N 46°16' W 123°57'0 0.0
2018-Feb-01 02:49N 46°16' W 123°57'0 0.0
2018-Feb-01 02:30N 46°16' W 123°57'0 0.0
2018-Jan-30 21:30N 46°16' W 123°57'0 0.0
2018-Jan-29 00:01N 46°16' W 123°57'0 0.0
2018-Jan-29 00:01N 46°16' W 123°57'0 0.0
2018-Jan-28 23:15N 46°16' W 123°57'0 0.0
2018-Jan-28 23:00N 46°16' W 123°57'0 0.0
2018-Jan-28 22:30N 46°16' W 123°57'0 0.0
2018-Jan-28 21:59N 46°16' W 123°57'0 0.0
2018-Jan-28 21:21N 46°16' W 123°57'0 0.0
2018-Jan-28 21:00N 46°16' W 123°57'0 0.0
2018-Jan-28 20:30N 46°16' W 123°57'0 0.0
2018-Jan-28 20:01N 46°16' W 123°57'  

Dump ship's entire track history